Time;durP1;ratioP1;P1;durP2;ratioP2;P2;SDS_P1;SDS_P2;PMS_P1;PMS_P2;Temp;Humidity;BMP_temperature;BMP_pressure;BME280_temperature;BME280_humidity;BME280_pressure;Samples;Min_cycle;Max_cycle;Signal;HPM_P1;HPM_P2
2021/11/25 00:00:40;;;;;;;;;;;;;;;7.39;100.00;99046.56;5093833;28;20367;-76
2021/11/25 00:03:07;;;;;;;;;;;;;;;7.56;100.00;99050.47;5093386;28;19967;-75
2021/11/25 00:05:34;;;;;;;;;;;;;;;7.93;100.00;99044.31;5075729;28;19924;-76
2021/11/25 00:08:02;;;;;;;;;;;;;;;8.03;100.00;99038.69;5093631;28;19964;-76
2021/11/25 00:10:30;;;;;;;;;;;;;;;8.44;100.00;99042.41;5093663;28;19947;-76
2021/11/25 00:12:58;;;;;;;;;;;;;;;7.30;100.00;99037.06;5093632;28;19931;-76
2021/11/25 00:15:26;;;;;;;;;;;;;;;7.72;100.00;99042.47;5093567;28;19935;-76
2021/11/25 00:17:53;;;;;;;;;;;;;;;7.80;100.00;99046.78;5075235;28;19924;-76
2021/11/25 00:20:21;;;;;;;;;;;;;;;7.82;100.00;99044.38;5075342;28;19935;-76
2021/11/25 00:22:48;;;;;;;;;;;;;;;8.05;100.00;99050.22;5093517;28;19955;-76
2021/11/25 00:25:15;;;;;;;;;;;;;;;7.42;100.00;99036.63;5058690;28;19931;-76
2021/11/25 00:27:42;;;;;;;;;;;;;;;7.80;100.00;99052.34;5075478;28;19925;-76
2021/11/25 00:30:10;;;;;;;;;;;;;;;7.91;100.00;99041.94;5075346;28;19924;-76
2021/11/25 00:35:56;;;;;;;;;;;;;;;7.73;100.00;99038.47;5072838;28;19970;-76
2021/11/25 00:38:23;;;;;;;;;;;;;;;7.14;100.00;99042.28;5055440;28;19924;-76
2021/11/25 00:40:50;;;;;;;;;;;;;;;7.12;100.00;99045.47;5091139;28;19935;-76
2021/11/25 00:43:18;;;;;;;;;;;;;;;6.77;100.00;99047.53;5092598;28;19924;-76
2021/11/25 00:45:45;;;;;;;;;;;;;;;7.41;100.00;99060.06;5076778;28;19970;-76
2021/11/25 00:48:12;;;;;;;;;;;;;;;7.37;100.00;99048.16;5058844;28;20372;-76
2021/11/25 00:50:39;;;;;;;;;;;;;;;6.95;100.00;99048.28;5076999;28;20015;-76
2021/11/25 00:53:06;;;;;;;;;;;;;;;7.27;100.00;99044.22;5076865;28;19925;-75
2021/11/25 00:55:33;;;;;;;;;;;;;;;6.68;100.00;99047.13;5076867;28;20011;-76
2021/11/25 00:58:00;;;;;;;;;;;;;;;7.12;100.00;99053.00;5059228;28;19929;-75
2021/11/25 01:00:28;;;;;;;;;;;;;;;7.34;100.00;99046.19;5076645;28;20308;-76
2021/11/25 01:02:55;;;;;;;;;;;;;;;7.78;100.00;99048.38;5076368;28;19924;-76
2021/11/25 01:05:22;;;;;;;;;;;;;;;8.19;100.00;99052.91;5076595;28;19954;-76
2021/11/25 01:07:49;;;;;;;;;;;;;;;8.23;100.00;99042.56;5076526;28;19924;-76
2021/11/25 01:10:18;;;;;;;;;;;;;;;7.76;100.00;99040.44;5076552;28;19991;-76
2021/11/25 01:12:45;;;;;;;;;;;;;;;7.61;100.00;99038.94;5058857;28;19924;-76
2021/11/25 01:15:14;;;;;;;;;;;;;;;7.45;100.00;99041.41;5058668;28;20023;-76
2021/11/25 01:17:41;;;;;;;;;;;;;;;7.75;100.00;99050.00;5076147;28;19929;-76
2021/11/25 01:20:13;;;;;;;;;;;;;;;7.68;100.00;99038.88;5076397;28;20322;-76
2021/11/25 01:22:40;;;;;;;;;;;;;;;7.32;100.00;99059.69;5076354;28;19924;-76
2021/11/25 01:25:08;;;;;;;;;;;;;;;7.12;100.00;99055.75;5076145;28;19925;-75
2021/11/25 01:27:35;;;;;;;;;;;;;;;7.28;100.00;99053.34;5076295;28;20298;-76
2021/11/25 01:30:03;;;;;;;;;;;;;;;7.57;100.00;99060.41;5075944;28;19931;-77
2021/11/25 01:32:30;;;;;;;;;;;;;;;8.10;100.00;99046.22;5076110;28;19935;-77
2021/11/25 01:34:58;;;;;;;;;;;;;;;7.32;100.00;99051.34;5076000;28;20375;-77
2021/11/25 01:37:28;;;;;;;;;;;;;;;7.10;100.00;99052.63;5058534;28;20295;-76
2021/11/25 01:39:55;;;;;;;;;;;;;;;7.16;100.00;99051.00;5076181;28;19930;-77
2021/11/25 01:42:22;;;;;;;;;;;;;;;7.39;100.00;99059.69;5091616;28;20272;-77
2021/11/25 01:44:49;;;;;;;;;;;;;;;7.35;100.00;99058.88;5075385;28;20371;-77
2021/11/25 01:47:17;;;;;;;;;;;;;;;6.97;100.00;99057.00;5091313;28;20306;-77
2021/11/25 01:49:44;;;;;;;;;;;;;;;7.58;100.00;99056.41;5075833;28;19924;-77
2021/11/25 01:52:12;;;;;;;;;;;;;;;6.98;100.00;99061.38;5074754;28;19925;-77
2021/11/25 01:54:39;;;;;;;;;;;;;;;7.24;100.00;99070.03;5058053;28;19970;-77
2021/11/25 01:57:06;;;;;;;;;;;;;;;6.76;100.00;99065.34;5075804;28;19925;-77
2021/11/25 01:59:36;;;;;;;;;;;;;;;6.68;100.00;99069.34;5075367;28;19924;-77
2021/11/25 02:02:04;;;;;;;;;;;;;;;7.29;100.00;99068.84;5075725;28;19925;-77
2021/11/25 02:04:32;;;;;;;;;;;;;;;6.84;100.00;99056.63;5075430;28;19924;-77
2021/11/25 02:06:59;;;;;;;;;;;;;;;6.98;100.00;99048.25;5091326;28;20332;-77
2021/11/25 02:09:26;;;;;;;;;;;;;;;7.04;100.00;99055.00;5075521;28;20023;-77
2021/11/25 02:11:53;;;;;;;;;;;;;;;7.21;100.00;99042.25;5075401;28;19947;-77
2021/11/25 02:14:20;;;;;;;;;;;;;;;7.27;100.00;99043.41;5075082;28;19925;-77
2021/11/25 02:16:49;;;;;;;;;;;;;;;7.56;100.00;99044.13;5075427;28;19924;-76
2021/11/25 02:19:17;;;;;;;;;;;;;;;7.15;100.00;99043.84;5075203;28;19970;-76
2021/11/25 02:21:44;;;;;;;;;;;;;;;7.03;100.00;99030.38;5075225;28;20360;-76
2021/11/25 02:24:11;;;;;;;;;;;;;;;7.25;100.00;99037.50;5057451;28;19936;-76
2021/11/25 02:26:38;;;;;;;;;;;;;;;7.08;100.00;99035.53;5075193;28;20310;-76
2021/11/25 02:29:05;;;;;;;;;;;;;;;6.81;100.00;99045.53;5074738;28;20279;-76
2021/11/25 02:31:32;;;;;;;;;;;;;;;7.03;100.00;99041.50;5075057;28;20446;-76
2021/11/25 02:33:59;;;;;;;;;;;;;;;7.50;100.00;99038.16;5057098;28;20343;-76
2021/11/25 02:36:27;;;;;;;;;;;;;;;7.26;100.00;99039.88;5074980;28;19924;-76
2021/11/25 02:38:55;;;;;;;;;;;;;;;6.89;100.00;99036.78;5090462;28;20276;-76
2021/11/25 02:41:22;;;;;;;;;;;;;;;7.35;100.00;99047.78;5074771;28;20302;-77
2021/11/25 02:43:52;;;;;;;;;;;;;;;7.13;100.00;99038.69;5074568;28;19932;-77
2021/11/25 02:46:20;;;;;;;;;;;;;;;6.67;100.00;99046.34;5074646;28;19931;-76
2021/11/25 02:48:49;;;;;;;;;;;;;;;6.97;100.00;99040.31;5074685;28;20257;-76
2021/11/25 02:51:20;;;;;;;;;;;;;;;6.71;100.00;99051.91;5090213;28;19924;-76
2021/11/25 02:53:47;;;;;;;;;;;;;;;6.96;100.00;99052.63;5056673;28;19932;-76
2021/11/25 02:56:17;;;;;;;;;;;;;;;7.13;100.00;99047.03;5074457;28;19924;-76
2021/11/25 02:58:45;;;;;;;;;;;;;;;7.09;100.00;99057.38;5074341;28;19928;-76
2021/11/25 03:01:24;;;;;;;;;;;;;;;7.03;100.00;99063.72;5074405;28;19948;-76
2021/11/25 03:03:51;;;;;;;;;;;;;;;6.28;100.00;99062.19;5056531;28;19925;-76
2021/11/25 03:06:18;;;;;;;;;;;;;;;6.56;100.00;99072.50;5074383;28;19931;-76
2021/11/25 03:08:45;;;;;;;;;;;;;;;6.09;100.00;99070.09;5074318;28;19924;-76
2021/11/25 03:11:17;;;;;;;;;;;;;;;6.37;100.00;99059.03;5074226;28;19951;-76
2021/11/25 03:13:47;;;;;;;;;;;;;;;6.56;100.00;99069.72;5074049;28;19925;-76
2021/11/25 03:16:17;;;;;;;;;;;;;;;6.31;100.00;99060.59;5056783;28;19974;-76
2021/11/25 03:18:44;;;;;;;;;;;;;;;6.61;100.00;99063.78;5074201;28;20384;-76
2021/11/25 03:21:15;;;;;;;;;;;;;;;6.59;100.00;99066.94;5074119;28;19928;-76
2021/11/25 03:23:42;;;;;;;;;;;;;;;6.99;100.00;99066.53;5074118;28;19928;-76
2021/11/25 03:26:11;;;;;;;;;;;;;;;6.62;100.00;99059.84;5089343;28;19928;-76
2021/11/25 03:28:43;;;;;;;;;;;;;;;6.16;100.00;99059.00;5056361;28;20011;-76
2021/11/25 03:31:12;;;;;;;;;;;;;;;6.79;100.00;99056.22;5056380;28;20287;-76
2021/11/25 03:33:39;;;;;;;;;;;;;;;6.54;100.00;99058.25;5072400;28;20291;-76
2021/11/25 03:36:07;;;;;;;;;;;;;;;6.38;100.00;99071.69;5074080;28;19924;-76
2021/11/25 03:39:00;;;;;;;;;;;;;;;6.20;100.00;99082.00;5073947;28;19925;-76
2021/11/25 03:41:29;;;;;;;;;;;;;;;5.91;100.00;99075.59;5073692;28;19924;-76
2021/11/25 03:43:58;;;;;;;;;;;;;;;6.69;100.00;99087.59;5055983;28;19925;-76
2021/11/25 03:46:25;;;;;;;;;;;;;;;6.03;100.00;99082.78;5073974;28;20024;-76
2021/11/25 03:48:53;;;;;;;;;;;;;;;6.00;100.00;99089.09;5039613;28;19924;-76
2021/11/25 03:51:20;;;;;;;;;;;;;;;6.69;100.00;99087.59;5073899;28;20378;-76
2021/11/25 03:53:48;;;;;;;;;;;;;;;7.00;100.00;99084.78;5073818;28;19928;-76
2021/11/25 03:56:16;;;;;;;;;;;;;;;7.20;100.00;99072.03;5073558;28;19925;-77
2021/11/25 03:58:44;;;;;;;;;;;;;;;7.26;100.00;99072.41;5073797;28;19982;-76
2021/11/25 04:01:11;;;;;;;;;;;;;;;6.54;100.00;99080.44;5073834;28;19932;-77
2021/11/25 04:03:39;;;;;;;;;;;;;;;6.14;100.00;99078.00;5073732;28;19924;-77
2021/11/25 04:06:06;;;;;;;;;;;;;;;5.97;100.00;99078.78;5073650;28;20315;-76
2021/11/25 04:08:33;;;;;;;;;;;;;;;6.53;100.00;99076.88;5073667;28;19931;-76
2021/11/25 04:11:00;;;;;;;;;;;;;;;6.72;100.00;99075.69;5073420;28;19924;-76
2021/11/25 04:13:27;;;;;;;;;;;;;;;6.59;100.00;99082.81;5073736;28;19932;-76
2021/11/25 04:15:55;;;;;;;;;;;;;;;6.82;100.00;99080.44;5076244;28;20318;-76
2021/11/25 04:18:22;;;;;;;;;;;;;;;6.21;100.00;99078.81;5077598;28;19929;-76
2021/11/25 04:20:49;;;;;;;;;;;;;;;6.36;100.00;99069.31;5059862;28;19924;-77
2021/11/25 04:23:16;;;;;;;;;;;;;;;5.98;100.00;99067.31;5077366;28;19932;-76
2021/11/25 04:25:46;;;;;;;;;;;;;;;5.72;100.00;99062.03;5077037;28;19928;-76
2021/11/25 04:28:13;;;;;;;;;;;;;;;6.44;100.00;99057.03;5077420;28;19924;-77
2021/11/25 04:35:54;;;;;;;;;;;;;;;6.41;100.00;99049.50;5077447;28;20523;-77
2021/11/25 04:38:21;;;;;;;;;;;;;;;5.96;100.00;99049.44;5077179;28;19932;-76
2021/11/25 04:40:50;;;;;;;;;;;;;;;6.45;100.00;99055.06;5077065;28;20368;-76
2021/11/25 04:43:18;;;;;;;;;;;;;;;5.95;100.00;99047.88;5059382;28;20273;-76
2021/11/25 04:45:45;;;;;;;;;;;;;;;5.66;100.00;99066.38;5059271;28;19928;-76
2021/11/25 04:48:13;;;;;;;;;;;;;;;6.52;100.00;99089.16;5077059;28;20058;-76
2021/11/25 04:50:40;;;;;;;;;;;;;;;6.14;100.00;99089.91;5077087;28;19924;-76
2021/11/25 04:53:10;;;;;;;;;;;;;;;6.04;100.00;99095.44;5075993;28;19932;-76
2021/11/25 04:55:37;;;;;;;;;;;;;;;6.55;100.00;99090.34;5076764;28;19931;-76
2021/11/25 04:58:05;;;;;;;;;;;;;;;6.43;100.00;99082.41;5042468;28;19925;-76
2021/11/25 05:00:32;;;;;;;;;;;;;;;6.24;100.00;99075.25;5076898;28;19936;-76
2021/11/25 05:02:59;;;;;;;;;;;;;;;5.66;100.00;99090.53;5058961;28;19974;-76
2021/11/25 05:05:27;;;;;;;;;;;;;;;5.72;100.00;99105.59;5076686;28;19932;-76
2021/11/25 05:07:54;;;;;;;;;;;;;;;5.69;100.00;99111.94;5058320;28;20312;-76
2021/11/25 05:10:21;;;;;;;;;;;;;;;5.47;100.00;99108.25;5076709;28;20272;-76
2021/11/25 05:12:48;;;;;;;;;;;;;;;5.39;100.00;99115.75;5076623;28;19925;-75
2021/11/25 05:15:15;;;;;;;;;;;;;;;5.37;100.00;99134.75;5076609;28;19985;-75
2021/11/25 05:17:43;;;;;;;;;;;;;;;5.39;100.00;99121.28;5076412;28;19928;-75
2021/11/25 05:20:12;;;;;;;;;;;;;;;5.62;100.00;99134.84;5058688;28;20027;-75
2021/11/25 05:22:39;;;;;;;;;;;;;;;5.47;100.00;99131.22;5075003;28;19978;-75
2021/11/25 05:25:07;;;;;;;;;;;;;;;5.30;100.00;99137.47;5076340;28;19924;-75
2021/11/25 05:27:34;;;;;;;;;;;;;;;5.44;100.00;99132.00;5076298;28;19928;-75
2021/11/25 05:30:03;;;;;;;;;;;;;;;5.48;100.00;99143.91;5076249;28;20539;-75
2021/11/25 05:32:30;;;;;;;;;;;;;;;5.98;100.00;99133.88;5075123;28;19935;-75
2021/11/25 05:34:57;;;;;;;;;;;;;;;5.59;100.00;99125.34;5058246;28;19925;-75
2021/11/25 05:37:25;;;;;;;;;;;;;;;5.69;100.00;99134.09;5075907;28;19928;-75
2021/11/25 05:39:54;;;;;;;;;;;;;;;6.51;100.00;99133.97;5074879;28;19925;-75
2021/11/25 05:42:21;;;;;;;;;;;;;;;6.04;100.00;99131.50;5058152;28;19931;-75
2021/11/25 05:44:48;;;;;;;;;;;;;;;4.93;100.00;99124.94;5075884;28;19939;-75
2021/11/25 05:47:16;;;;;;;;;;;;;;;5.36;100.00;99126.81;5075800;28;19924;-76
2021/11/25 05:49:43;;;;;;;;;;;;;;;5.80;100.00;99135.72;5075579;28;19924;-75
2021/11/25 05:52:10;;;;;;;;;;;;;;;5.99;100.00;99120.78;5075066;28;19924;-76
2021/11/25 05:54:37;;;;;;;;;;;;;;;5.71;100.00;99126.19;5075372;28;20018;-75
2021/11/25 05:57:07;;;;;;;;;;;;;;;5.85;100.00;99129.03;5075189;28;20295;-75
2021/11/25 05:59:33;;;;;;;;;;;;;;;5.78;100.00;99131.75;5075174;28;20374;-75
2021/11/25 06:02:03;;;;;;;;;;;;;;;5.93;100.00;99136.22;5057227;28;19924;-75
2021/11/25 06:04:30;;;;;;;;;;;;;;;6.33;100.00;99135.94;5074956;28;19924;-75
2021/11/25 06:06:57;;;;;;;;;;;;;;;6.12;100.00;99135.91;5074788;28;19994;-75
2021/11/25 06:09:24;;;;;;;;;;;;;;;6.23;100.00;99131.94;5075336;28;20011;-75
2021/11/25 06:11:52;;;;;;;;;;;;;;;6.22;100.00;99129.56;5074997;28;20388;-75
2021/11/25 06:14:20;;;;;;;;;;;;;;;6.71;100.00;99129.66;5075030;28;19924;-76
2021/11/25 06:16:48;;;;;;;;;;;;;;;6.26;100.00;99127.56;5074972;28;19928;-76
2021/11/25 06:19:15;;;;;;;;;;;;;;;6.39;100.00;99126.81;5057361;28;20011;-76
2021/11/25 06:21:43;;;;;;;;;;;;;;;6.27;100.00;99131.97;5057318;28;19936;-75
2021/11/25 06:24:11;;;;;;;;;;;;;;;6.20;100.00;99148.56;5075150;28;19924;-75
2021/11/25 06:26:44;;;;;;;;;;;;;;;6.23;100.00;99153.34;5075110;28;20006;-75
2021/11/25 06:29:11;;;;;;;;;;;;;;;5.99;100.00;99156.84;5075156;28;19931;-75
2021/11/25 06:31:38;;;;;;;;;;;;;;;6.15;100.00;99148.97;5057319;28;19931;-75
2021/11/25 06:34:05;;;;;;;;;;;;;;;5.97;100.00;99146.13;5074944;28;20338;-76
2021/11/25 06:36:33;;;;;;;;;;;;;;;6.61;100.00;99158.19;5074732;28;20414;-75
2021/11/25 06:39:00;;;;;;;;;;;;;;;6.57;100.00;99151.84;5074215;28;19931;-76
2021/11/25 06:41:27;;;;;;;;;;;;;;;6.55;100.00;99145.88;5073682;28;19928;-76
2021/11/25 06:43:54;;;;;;;;;;;;;;;5.73;100.00;99148.75;5074917;28;20021;-75
2021/11/25 06:46:21;;;;;;;;;;;;;;;5.65;100.00;99144.38;5056797;28;19925;-75
2021/11/25 06:48:48;;;;;;;;;;;;;;;6.17;100.00;99154.91;5074720;28;19924;-75
2021/11/25 06:51:15;;;;;;;;;;;;;;;6.24;100.00;99174.38;5056269;28;20021;-75
2021/11/25 06:53:45;;;;;;;;;;;;;;;6.11;100.00;99173.94;5056598;28;19936;-76
2021/11/25 06:56:13;;;;;;;;;;;;;;;6.29;100.00;99169.22;5090315;28;19947;-76
2021/11/25 06:58:40;;;;;;;;;;;;;;;6.14;100.00;99175.09;5074504;28;19930;-76
2021/11/25 07:01:08;;;;;;;;;;;;;;;6.33;100.00;99169.25;5056529;28;19928;-76
2021/11/25 07:03:35;;;;;;;;;;;;;;;6.12;100.00;99186.59;5089641;28;20279;-79
2021/11/25 07:06:03;;;;;;;;;;;;;;;6.34;100.00;99176.38;5074329;28;19928;-75
2021/11/25 07:08:30;;;;;;;;;;;;;;;6.18;100.00;99195.34;5074358;28;19947;-77
2021/11/25 07:10:58;;;;;;;;;;;;;;;6.40;100.00;99197.81;5074409;28;19987;-76
2021/11/25 07:13:28;;;;;;;;;;;;;;;6.26;100.00;99208.84;5074300;28;19928;-76
2021/11/25 07:15:55;;;;;;;;;;;;;;;6.63;100.00;99205.78;5057528;28;20279;-75
2021/11/25 07:18:23;;;;;;;;;;;;;;;6.12;100.00;99219.91;5093778;28;19932;-76
2021/11/25 07:20:50;;;;;;;;;;;;;;;6.54;100.00;99210.91;5067532;28;20359;-77
2021/11/25 07:23:18;;;;;;;;;;;;;;;6.46;100.00;99209.31;5075669;28;20464;-77
2021/11/25 07:25:45;;;;;;;;;;;;;;;6.37;100.00;99220.78;5093625;28;19985;-77
2021/11/25 07:28:12;;;;;;;;;;;;;;;6.30;100.00;99222.75;5093174;28;19939;-76
2021/11/25 07:30:39;;;;;;;;;;;;;;;6.20;100.00;99215.97;5081916;28;19944;-76
2021/11/25 07:33:06;;;;;;;;;;;;;;;5.96;100.00;99226.94;5073085;28;19931;-76
2021/11/25 07:35:33;;;;;;;;;;;;;;;5.65;100.00;99230.31;5094155;28;20410;-76
2021/11/25 07:38:02;;;;;;;;;;;;;;;5.63;100.00;99222.41;5090659;28;20339;-76
2021/11/25 07:40:30;;;;;;;;;;;;;;;5.36;100.00;99227.34;5093482;28;19931;-76
2021/11/25 07:42:57;;;;;;;;;;;;;;;5.78;100.00;99224.06;5075412;28;19925;-76
2021/11/25 07:45:26;;;;;;;;;;;;;;;5.70;100.00;99221.63;5064681;28;19931;-76
2021/11/25 07:47:54;;;;;;;;;;;;;;;5.99;100.00;99209.53;5093140;28;20015;-76
2021/11/25 07:50:25;;;;;;;;;;;;;;;6.23;100.00;99203.28;5083666;28;19974;-76
2021/11/25 07:52:53;;;;;;;;;;;;;;;6.09;100.00;99198.47;5073267;28;20346;-76
2021/11/25 07:55:20;;;;;;;;;;;;;;;6.23;100.00;99209.63;5072659;28;19930;-76
2021/11/25 07:57:49;;;;;;;;;;;;;;;6.09;100.00;99214.34;5093940;28;19982;-76
2021/11/25 08:00:17;;;;;;;;;;;;;;;6.14;100.00;99228.63;5075263;28;19924;-76
2021/11/25 08:02:44;;;;;;;;;;;;;;;5.88;100.00;99220.56;5092904;28;19924;-77
2021/11/25 08:05:11;;;;;;;;;;;;;;;6.19;100.00;99217.16;5093978;28;20355;-77
2021/11/25 08:07:41;;;;;;;;;;;;;;;6.31;100.00;99219.59;5059184;28;19924;-79
2021/11/25 08:10:10;;;;;;;;;;;;;;;6.43;100.00;99207.31;5075916;28;19924;-76
2021/11/25 08:12:37;;;;;;;;;;;;;;;5.92;100.00;99209.50;5075737;28;19924;-75
2021/11/25 08:15:05;;;;;;;;;;;;;;;5.83;100.00;99214.63;5058731;28;19924;-75
2021/11/25 08:17:32;;;;;;;;;;;;;;;6.16;100.00;99219.91;5093559;28;20324;-75
2021/11/25 08:19:59;;;;;;;;;;;;;;;5.72;100.00;99211.75;5093375;28;19928;-75
2021/11/25 08:22:28;;;;;;;;;;;;;;;5.98;100.00;99224.59;5093543;28;19932;-74
2021/11/25 08:24:55;;;;;;;;;;;;;;;6.04;100.00;99231.34;5093562;28;19924;-74
2021/11/25 08:27:22;;;;;;;;;;;;;;;6.27;100.00;99226.31;5093056;28;19931;-74
2021/11/25 08:29:49;;;;;;;;;;;;;;;5.80;100.00;99221.69;5093484;28;20397;-74
2021/11/25 08:32:16;;;;;;;;;;;;;;;6.06;100.00;99226.22;5075324;28;19924;-74
2021/11/25 08:34:43;;;;;;;;;;;;;;;6.45;100.00;99232.72;5093521;28;20402;-74
2021/11/25 08:37:10;;;;;;;;;;;;;;;6.54;100.00;99219.25;5093612;28;19924;-74
2021/11/25 08:39:38;;;;;;;;;;;;;;;6.42;100.00;99228.72;5093612;28;20011;-74
2021/11/25 08:42:05;;;;;;;;;;;;;;;6.55;100.00;99229.16;5093607;28;20272;-74
2021/11/25 08:44:33;;;;;;;;;;;;;;;6.02;100.00;99226.19;5093285;28;19931;-74
2021/11/25 08:47:00;;;;;;;;;;;;;;;6.59;100.00;99221.63;5075168;28;19924;-74
2021/11/25 08:49:29;;;;;;;;;;;;;;;6.58;100.00;99222.81;5093533;28;20689;-74
2021/11/25 08:51:57;;;;;;;;;;;;;;;6.44;100.00;99220.00;5093423;28;19924;-74
2021/11/25 08:54:24;;;;;;;;;;;;;;;6.34;100.00;99220.78;5093210;28;19928;-74
2021/11/25 08:56:52;;;;;;;;;;;;;;;6.41;100.00;99237.44;5093334;28;19931;-74
2021/11/25 08:59:20;;;;;;;;;;;;;;;6.56;100.00;99239.88;5093296;28;19924;-74
2021/11/25 09:01:48;;;;;;;;;;;;;;;6.68;100.00;99230.41;5095121;28;19990;-74
2021/11/25 09:04:15;;;;;;;;;;;;;;;6.70;100.00;99228.00;5078916;28;20018;-73
2021/11/25 09:06:42;;;;;;;;;;;;;;;6.82;100.00;99224.84;5096956;28;19931;-74
2021/11/25 09:09:09;;;;;;;;;;;;;;;6.50;100.00;99235.09;5096869;28;19973;-74
2021/11/25 09:11:37;;;;;;;;;;;;;;;6.91;100.00;99233.59;5097210;28;19924;-74
2021/11/25 09:14:04;;;;;;;;;;;;;;;6.98;100.00;99233.63;5095151;28;19928;-74
2021/11/25 09:16:32;;;;;;;;;;;;;;;6.24;100.00;99233.41;5075903;28;20350;-75
2021/11/25 09:19:00;;;;;;;;;;;;;;;6.60;100.00;99234.34;5075966;28;19970;-74
2021/11/25 09:21:29;;;;;;;;;;;;;;;5.82;100.00;99240.72;5091364;28;19924;-74
2021/11/25 09:23:57;;;;;;;;;;;;;;;6.47;100.00;99235.88;5075986;28;20375;-74
2021/11/25 09:26:24;;;;;;;;;;;;;;;6.42;100.00;99234.28;5075861;28;19958;-74
2021/11/25 09:28:54;;;;;;;;;;;;;;;6.13;100.00;99245.66;5077882;28;20326;-74
2021/11/25 09:31:21;;;;;;;;;;;;;;;5.90;100.00;99262.59;5096149;28;19926;-74
2021/11/25 09:33:51;;;;;;;;;;;;;;;6.76;100.00;99245.88;5096063;28;20019;-74
2021/11/25 09:36:18;;;;;;;;;;;;;;;7.09;100.00;99251.06;5096084;28;20426;-74
2021/11/25 09:38:46;;;;;;;;;;;;;;;7.02;100.00;99259.41;5096106;28;20370;-74
2021/11/25 09:41:14;;;;;;;;;;;;;;;6.39;100.00;99267.59;5077706;28;19924;-73
2021/11/25 09:43:42;;;;;;;;;;;;;;;5.67;100.00;99252.91;5095499;28;19950;-74
2021/11/25 09:46:10;;;;;;;;;;;;;;;5.88;100.00;99264.16;5096090;28;20260;-75
2021/11/25 09:48:38;;;;;;;;;;;;;;;6.29;100.00;99271.09;5096053;28;19930;-74
2021/11/25 09:51:05;;;;;;;;;;;;;;;5.89;100.00;99291.50;5078390;28;19924;-74
2021/11/25 09:53:33;;;;;;;;;;;;;;;5.85;100.00;99278.78;5096698;28;19931;-74
2021/11/25 09:56:00;;;;;;;;;;;;;;;6.15;100.00;99282.16;5057621;28;20005;-74
2021/11/25 09:58:29;;;;;;;;;;;;;;;6.71;100.00;99279.59;5075339;28;19924;-74
2021/11/25 10:01:02;;;;;;;;;;;;;;;5.82;100.00;99299.78;5091271;28;19924;-74
2021/11/25 10:03:30;;;;;;;;;;;;;;;6.33;100.00;99291.34;5057230;28;20016;-75
2021/11/25 10:05:57;;;;;;;;;;;;;;;6.69;100.00;99284.72;5041021;28;19932;-74
2021/11/25 10:08:25;;;;;;;;;;;;;;;6.53;100.00;99273.16;5057568;28;19932;-75
2021/11/25 10:11:08;;;;;;;;;;;;;;;6.62;100.00;99276.41;5075376;28;20018;-74
2021/11/25 10:13:53;;;;;;;;;;;;;;;6.24;100.00;99279.81;5074245;28;20080;-74
2021/11/25 10:16:24;;;;;;;;;;;;;;;6.56;100.00;99294.59;5075433;28;19931;-75
2021/11/25 10:18:52;;;;;;;;;;;;;;;6.20;100.00;99306.72;5041174;28;19963;-75
2021/11/25 10:21:21;;;;;;;;;;;;;;;6.83;100.00;99304.22;5075269;28;19928;-74
2021/11/25 10:23:49;;;;;;;;;;;;;;;6.27;100.00;99304.00;5057422;28;19925;-79
2021/11/25 10:26:18;;;;;;;;;;;;;;;6.18;100.00;99315.44;5057145;28;19924;-75
2021/11/25 10:28:47;;;;;;;;;;;;;;;6.50;100.00;99321.94;5039910;28;19978;-75
2021/11/25 10:31:20;;;;;;;;;;;;;;;6.48;100.00;99315.97;5068954;28;20311;-75
2021/11/25 10:33:51;;;;;;;;;;;;;;;6.98;100.00;99317.72;5082927;28;19926;-75
2021/11/25 10:36:34;;;;;;;;;;;;;;;7.13;100.00;99307.47;5071243;28;20390;-75
2021/11/25 10:39:15;;;;;;;;;;;;;;;7.20;100.00;99318.56;5053397;28;20288;-76
2021/11/25 10:41:47;;;;;;;;;;;;;;;6.71;100.00;99313.69;5089981;28;19977;-75
2021/11/25 10:44:16;;;;;;;;;;;;;;;7.15;100.00;99314.19;5091598;28;20065;-75
2021/11/25 10:46:55;;;;;;;;;;;;;;;6.79;100.00;99297.84;5091413;28;19928;-75
2021/11/25 10:49:37;;;;;;;;;;;;;;;7.17;100.00;99302.69;5073562;28;19928;-75
2021/11/25 10:52:15;;;;;;;;;;;;;;;6.78;100.00;99312.94;5091449;28;19928;-76
2021/11/25 10:54:48;;;;;;;;;;;;;;;7.11;100.00;99290.38;5073585;28;20013;-75
2021/11/25 10:57:16;;;;;;;;;;;;;;;7.01;100.00;99271.72;5073277;28;20007;-76
2021/11/25 10:59:46;;;;;;;;;;;;;;;6.68;100.00;99274.81;5089941;28;19928;-75
2021/11/25 11:02:17;;;;;;;;;;;;;;;7.71;100.00;99273.72;5069577;28;19969;-75
2021/11/25 11:04:45;;;;;;;;;;;;;;;8.08;100.00;99269.25;5090969;28;20023;-75
2021/11/25 11:10:31;;;;;;;;;;;;;;;8.04;100.00;99254.53;5090592;28;20040;-75
2021/11/25 11:13:47;;;;;;;;;;;;;;;7.11;100.00;99273.69;5091120;28;19933;-75
2021/11/25 11:18:46;;;;;;;;;;;;;;;6.84;100.00;99251.06;5088943;28;20395;-76
2021/11/25 11:21:31;;;;;;;;;;;;;;;6.44;100.00;99264.41;5086008;28;19925;-76
2021/11/25 11:24:00;;;;;;;;;;;;;;;6.72;100.00;99275.63;5070987;28;19924;-76
2021/11/25 11:26:27;;;;;;;;;;;;;;;6.79;100.00;99258.97;5069848;28;20264;-76
2021/11/25 11:28:54;;;;;;;;;;;;;;;6.86;100.00;99259.00;5070397;28;19936;-75
2021/11/25 11:31:22;;;;;;;;;;;;;;;6.72;100.00;99259.75;5068359;28;19925;-76
2021/11/25 11:33:49;;;;;;;;;;;;;;;6.98;100.00;99267.72;5085866;28;19956;-76
2021/11/25 11:36:20;;;;;;;;;;;;;;;7.24;100.00;99269.34;5070363;28;20648;-76
2021/11/25 11:38:49;;;;;;;;;;;;;;;7.44;100.00;99258.63;5069843;28;19939;-77
2021/11/25 11:41:17;;;;;;;;;;;;;;;7.69;100.00;99276.88;5069895;28;19931;-77
2021/11/25 11:43:44;;;;;;;;;;;;;;;6.94;100.00;99252.25;5070587;28;19935;-77
2021/11/25 11:46:11;;;;;;;;;;;;;;;7.13;100.00;99258.22;5069615;28;19943;-76
2021/11/25 11:48:38;;;;;;;;;;;;;;;6.63;100.00;99251.00;5069728;28;19939;-76
2021/11/25 11:51:17;;;;;;;;;;;;;;;6.86;100.00;99259.00;5072261;28;20369;-76
2021/11/25 11:53:45;;;;;;;;;;;;;;;7.05;100.00;99261.38;5089198;28;19928;-75
2021/11/25 11:56:16;;;;;;;;;;;;;;;7.44;100.00;99267.75;5089275;28;19925;-75
2021/11/25 11:58:52;;;;;;;;;;;;;;;6.64;100.00;99258.16;5070541;28;20380;-75
2021/11/25 12:01:23;;;;;;;;;;;;;;;6.63;100.00;99255.75;5081556;28;19975;-75
2021/11/25 12:04:03;;;;;;;;;;;;;;;6.73;100.00;99249.44;5073833;28;20409;-76
2021/11/25 12:06:34;;;;;;;;;;;;;;;6.89;100.00;99269.31;5092991;28;20020;-77
2021/11/25 12:09:21;;;;;;;;;;;;;;;7.03;100.00;99269.31;5092413;28;19931;-76
2021/11/25 12:12:07;;;;;;;;;;;;;;;7.00;100.00;99259.78;5080859;28;19925;-76
2021/11/25 12:14:35;;;;;;;;;;;;;;;7.02;100.00;99273.28;5093026;28;19935;-76
2021/11/25 12:17:09;;;;;;;;;;;;;;;7.72;100.00;99278.88;5044758;28;19928;-77
2021/11/25 12:19:38;;;;;;;;;;;;;;;6.91;100.00;99272.47;5062881;28;19924;-76
2021/11/25 12:22:11;;;;;;;;;;;;;;;7.73;100.00;99276.88;5063434;28;19928;-76
2021/11/25 12:24:43;;;;;;;;;;;;;;;7.06;100.00;99249.06;5089531;28;20324;-76
2021/11/25 12:27:14;;;;;;;;;;;;;;;6.84;100.00;99256.63;5089939;28;20398;-76
2021/11/25 12:29:48;;;;;;;;;;;;;;;7.00;100.00;99262.56;5072125;28;19924;-77
2021/11/25 12:32:34;;;;;;;;;;;;;;;6.59;100.00;99238.28;5088490;28;19924;-77
2021/11/25 12:35:14;;;;;;;;;;;;;;;6.95;100.00;99240.72;5071986;28;19924;-75
2021/11/25 12:37:41;;;;;;;;;;;;;;;7.19;100.00;99228.06;5093677;28;20410;-77
2021/11/25 12:40:18;;;;;;;;;;;;;;;7.59;100.00;99213.72;5094217;28;20680;-79
2021/11/25 12:42:54;;;;;;;;;;;;;;;7.14;100.00;99225.66;5056106;28;19955;-79
2021/11/25 12:45:30;;;;;;;;;;;;;;;6.96;100.00;99224.88;5073280;28;20347;-77
2021/11/25 12:48:09;;;;;;;;;;;;;;;7.56;100.00;99210.97;5073082;28;20411;-77
2021/11/25 12:50:39;;;;;;;;;;;;;;;7.31;100.00;99200.63;5073252;28;20287;-78
2021/11/25 12:53:07;;;;;;;;;;;;;;;7.20;100.00;99191.53;5073337;28;19924;-77
2021/11/25 12:55:35;;;;;;;;;;;;;;;7.34;100.00;99190.72;5056169;28;19925;-77
2021/11/25 12:58:03;;;;;;;;;;;;;;;7.64;100.00;99190.25;5055092;28;19925;-75
2021/11/25 13:00:31;;;;;;;;;;;;;;;7.42;100.00;99191.50;5072897;28;19928;-76
2021/11/25 13:03:06;;;;;;;;;;;;;;;7.08;100.00;99182.81;5073811;28;20359;-74
2021/11/25 13:05:34;;;;;;;;;;;;;;;7.93;100.00;99178.66;5076278;28;19955;-74
2021/11/25 13:08:03;;;;;;;;;;;;;;;7.64;100.00;99181.94;5074777;28;19928;-75
2021/11/25 13:10:31;;;;;;;;;;;;;;;7.06;100.00;99185.97;5074709;28;20024;-75